BTK6204 WIII-WAGI
Flight info
| Callsign | BTK6204 |
|---|---|
| Flight time | 1h 3m |
| Altitude | 35000 |
| Route | EGUKO W15 TAVIP |
| Aircraft | B738/M-SDE2E3FGHIRWXY/LB1 |
Departure
| Time | 2026-04-23 10:09 |
|---|---|
| Airport | Soekarno-Hatta International Airport (WIII) |
Arrival
| Time | 2026-04-23 11:12 |
|---|---|
| Airport | Iskandar Airport (WAGI) |
| Time | Latitude | Longitude | Altitude | Speed | Heading |
|---|---|---|---|---|---|
| 2026-04-23 09:50 | -6.12001 | 106.65515 | 42 ft | 0 kts | 203° |
| 2026-04-23 09:58 | -6.11993 | 106.65519 | 41 ft | 2 kts | 199° |
| 2026-04-23 09:58 | -6.11978 | 106.65524 | 41 ft | 2 kts | 193° |
| 2026-04-23 09:58 | -6.11963 | 106.65526 | 41 ft | 2 kts | 187° |
| 2026-04-23 09:58 | -6.11948 | 106.65528 | 41 ft | 2 kts | 189° |
| 2026-04-23 09:59 | -6.11934 | 106.65532 | 40 ft | 2 kts | 204° |
| 2026-04-23 09:59 | -6.11922 | 106.65537 | 40 ft | 1 kts | 202° |
| 2026-04-23 09:59 | -6.11909 | 106.65540 | 40 ft | 1 kts | 186° |
| 2026-04-23 09:59 | -6.11902 | 106.65540 | 40 ft | 0 kts | 231° |
| 2026-04-23 10:00 | -6.11900 | 106.65546 | 40 ft | 1 kts | 249° |
| 2026-04-23 10:00 | -6.11899 | 106.65547 | 40 ft | 0 kts | 248° |
| 2026-04-23 10:02 | -6.11900 | 106.65544 | 40 ft | 1 kts | 248° |
| 2026-04-23 10:02 | -6.11910 | 106.65522 | 40 ft | 5 kts | 246° |
| 2026-04-23 10:02 | -6.11931 | 106.65471 | 40 ft | 10 kts | 248° |
| 2026-04-23 10:02 | -6.11954 | 106.65396 | 40 ft | 11 kts | 276° |
| 2026-04-23 10:03 | -6.11921 | 106.65330 | 39 ft | 5 kts | 306° |
| 2026-04-23 10:03 | -6.11920 | 106.65328 | 39 ft | 0 kts | 306° |
| 2026-04-23 10:03 | -6.11916 | 106.65323 | 38 ft | 4 kts | 306° |
| 2026-04-23 10:03 | -6.11878 | 106.65276 | 37 ft | 11 kts | 315° |
| 2026-04-23 10:04 | -6.11796 | 106.65224 | 35 ft | 17 kts | 314° |
| 2026-04-23 10:04 | -6.11814 | 106.65083 | 35 ft | 26 kts | 249° |
| 2026-04-23 10:04 | -6.11881 | 106.64912 | 35 ft | 31 kts | 248° |
| 2026-04-23 10:04 | -6.11951 | 106.64735 | 34 ft | 25 kts | 249° |
| 2026-04-23 10:05 | -6.12017 | 106.64567 | 33 ft | 25 kts | 248° |
| 2026-04-23 10:05 | -6.12079 | 106.64409 | 35 ft | 23 kts | 248° |
| 2026-04-23 10:05 | -6.12141 | 106.64261 | 35 ft | 22 kts | 250° |
| 2026-04-23 10:05 | -6.12199 | 106.64118 | 37 ft | 21 kts | 248° |
| 2026-04-23 10:06 | -6.12241 | 106.64008 | 39 ft | 14 kts | 250° |
| 2026-04-23 10:06 | -6.12237 | 106.63911 | 38 ft | 14 kts | 306° |
| 2026-04-23 10:06 | -6.12146 | 106.63895 | 38 ft | 13 kts | 12° |
| 2026-04-23 10:06 | -6.12076 | 106.63943 | 38 ft | 6 kts | 67° |
| 2026-04-23 10:07 | -6.12076 | 106.63944 | 38 ft | 0 kts | 68° |
| 2026-04-23 10:08 | -6.12042 | 106.64027 | 37 ft | 45 kts | 68° |
| 2026-04-23 10:08 | -6.11811 | 106.64602 | 32 ft | 128 kts | 68° |
| 2026-04-23 10:08 | -6.11397 | 106.65643 | 111 ft | 186 kts | 68° |
| 2026-04-23 10:09 | -6.10354 | 106.68238 | 1294 ft | 218 kts | 60° |
| 2026-04-23 10:09 | -6.09370 | 106.69442 | 1914 ft | 230 kts | 43° |
| 2026-04-23 10:09 | -6.08723 | 106.70019 | 2232 ft | 239 kts | 41° |
| 2026-04-23 10:09 | -6.07449 | 106.71172 | 2854 ft | 255 kts | 44° |
| 2026-04-23 10:10 | -6.06168 | 106.72436 | 3617 ft | 263 kts | 46° |
| 2026-04-23 10:10 | -6.04884 | 106.73762 | 4472 ft | 268 kts | 46° |
| 2026-04-23 10:10 | -6.03562 | 106.75138 | 4882 ft | 277 kts | 46° |
| 2026-04-23 10:10 | -6.02226 | 106.76522 | 4983 ft | 274 kts | 46° |
| 2026-04-23 10:11 | -6.00892 | 106.77898 | 5015 ft | 272 kts | 46° |
| 2026-04-23 10:11 | -5.99571 | 106.79258 | 5020 ft | 270 kts | 46° |
| 2026-04-23 10:11 | -5.98248 | 106.80621 | 5015 ft | 270 kts | 46° |
| 2026-04-23 10:11 | -5.96988 | 106.82057 | 5216 ft | 285 kts | 54° |
| 2026-04-23 10:12 | -5.95959 | 106.83697 | 6424 ft | 275 kts | 60° |
| 2026-04-23 10:12 | -5.95000 | 106.85381 | 7110 ft | 284 kts | 60° |
| 2026-04-23 10:12 | -5.94010 | 106.87082 | 7980 ft | 286 kts | 59° |
| 2026-04-23 10:12 | -5.93048 | 106.88664 | 8689 ft | 291 kts | 58° |
| 2026-04-23 10:13 | -5.91912 | 106.90485 | 9468 ft | 296 kts | 57° |
| 2026-04-23 10:13 | -5.90810 | 106.92236 | 10236 ft | 300 kts | 57° |
| 2026-04-23 10:13 | -5.89671 | 106.94044 | 10687 ft | 316 kts | 57° |
| 2026-04-23 10:13 | -5.88472 | 106.95948 | 11145 ft | 330 kts | 57° |
| 2026-04-23 10:14 | -5.87209 | 106.97956 | 11592 ft | 343 kts | 57° |
| 2026-04-23 10:14 | -5.85931 | 106.99987 | 12361 ft | 345 kts | 58° |
| 2026-04-23 10:14 | -5.84629 | 107.02056 | 13043 ft | 350 kts | 57° |
| 2026-04-23 10:14 | -5.83322 | 107.04134 | 13735 ft | 353 kts | 57° |
| 2026-04-23 10:15 | -5.82016 | 107.06207 | 14559 ft | 352 kts | 57° |
| 2026-04-23 10:15 | -5.80700 | 107.08297 | 15236 ft | 354 kts | 57° |
| 2026-04-23 10:15 | -5.79388 | 107.10380 | 15914 ft | 356 kts | 57° |
| 2026-04-23 10:15 | -5.78068 | 107.12479 | 16545 ft | 359 kts | 57° |
| 2026-04-23 10:16 | -5.76767 | 107.14544 | 17131 ft | 362 kts | 57° |
| 2026-04-23 10:16 | -5.75414 | 107.16691 | 17798 ft | 363 kts | 57° |
| 2026-04-23 10:16 | -5.74061 | 107.18838 | 18361 ft | 367 kts | 57° |
| 2026-04-23 10:16 | -5.72679 | 107.21032 | 18990 ft | 368 kts | 57° |
| 2026-04-23 10:17 | -5.71313 | 107.23199 | 19538 ft | 371 kts | 57° |
| 2026-04-23 10:17 | -5.69935 | 107.25384 | 20042 ft | 375 kts | 57° |
| 2026-04-23 10:17 | -5.68534 | 107.27604 | 20645 ft | 376 kts | 57° |
| 2026-04-23 10:17 | -5.67120 | 107.29846 | 21158 ft | 379 kts | 57° |
| 2026-04-23 10:18 | -5.65708 | 107.32084 | 21690 ft | 381 kts | 57° |
| 2026-04-23 10:18 | -5.64273 | 107.34359 | 22102 ft | 387 kts | 57° |
| 2026-04-23 10:18 | -5.62834 | 107.36640 | 22698 ft | 386 kts | 57° |
| 2026-04-23 10:18 | -5.61385 | 107.38937 | 23055 ft | 393 kts | 57° |
| 2026-04-23 10:19 | -5.59921 | 107.41258 | 23545 ft | 395 kts | 57° |
| 2026-04-23 10:19 | -5.58432 | 107.43619 | 23947 ft | 399 kts | 57° |
| 2026-04-23 10:19 | -5.56939 | 107.45988 | 24396 ft | 402 kts | 57° |
| 2026-04-23 10:19 | -5.55438 | 107.48366 | 24849 ft | 404 kts | 57° |
| 2026-04-23 10:20 | -5.53933 | 107.50751 | 25234 ft | 408 kts | 57° |
| 2026-04-23 10:20 | -5.52410 | 107.53165 | 25726 ft | 409 kts | 57° |
| 2026-04-23 10:20 | -5.50868 | 107.55608 | 26018 ft | 415 kts | 57° |
| 2026-04-23 10:20 | -5.49325 | 107.58050 | 26462 ft | 417 kts | 57° |
| 2026-04-23 10:21 | -5.47771 | 107.60509 | 26832 ft | 419 kts | 57° |
| 2026-04-23 10:21 | -5.46199 | 107.62999 | 27235 ft | 422 kts | 57° |
| 2026-04-23 10:21 | -5.44617 | 107.65505 | 27580 ft | 425 kts | 57° |
| 2026-04-23 10:21 | -5.43042 | 107.67999 | 28050 ft | 424 kts | 57° |
| 2026-04-23 10:22 | -5.41463 | 107.70499 | 28281 ft | 429 kts | 57° |
| 2026-04-23 10:22 | -5.39855 | 107.73045 | 28731 ft | 429 kts | 57° |
| 2026-04-23 10:22 | -5.38274 | 107.75549 | 29116 ft | 430 kts | 57° |
| 2026-04-23 10:22 | -5.36671 | 107.78088 | 29399 ft | 434 kts | 57° |
| 2026-04-23 10:23 | -5.35032 | 107.80682 | 29765 ft | 435 kts | 57° |
| 2026-04-23 10:23 | -5.33451 | 107.83184 | 30074 ft | 438 kts | 57° |
| 2026-04-23 10:23 | -5.31813 | 107.85776 | 30343 ft | 441 kts | 58° |
| 2026-04-23 10:23 | -5.30177 | 107.88363 | 30690 ft | 443 kts | 58° |
| 2026-04-23 10:24 | -5.28524 | 107.90977 | 30916 ft | 447 kts | 58° |
| 2026-04-23 10:24 | -5.26858 | 107.93613 | 31272 ft | 448 kts | 58° |
| 2026-04-23 10:24 | -5.25215 | 107.96210 | 31538 ft | 450 kts | 58° |
| 2026-04-23 10:24 | -5.23543 | 107.98854 | 31826 ft | 453 kts | 58° |
| 2026-04-23 10:25 | -5.21841 | 108.01547 | 32169 ft | 453 kts | 58° |
| 2026-04-23 10:25 | -5.20152 | 108.04215 | 32394 ft | 456 kts | 58° |
| 2026-04-23 10:25 | -5.18520 | 108.06795 | 32753 ft | 457 kts | 58° |
| 2026-04-23 10:25 | -5.16811 | 108.09498 | 33287 ft | 453 kts | 58° |
| 2026-04-23 10:26 | -5.15139 | 108.12140 | 33752 ft | 452 kts | 58° |
| 2026-04-23 10:26 | -5.13460 | 108.14794 | 34168 ft | 451 kts | 58° |
| 2026-04-23 10:26 | -5.11806 | 108.17407 | 34536 ft | 450 kts | 58° |
| 2026-04-23 10:26 | -5.10124 | 108.20065 | 34802 ft | 451 kts | 58° |
| 2026-04-23 10:27 | -5.06718 | 108.25445 | 34801 ft | 452 kts | 58° |
| 2026-04-23 10:27 | -5.03384 | 108.30711 | 34801 ft | 448 kts | 58° |
| 2026-04-23 10:28 | -5.00027 | 108.36011 | 34801 ft | 449 kts | 58° |
| 2026-04-23 10:28 | -4.96673 | 108.41307 | 34800 ft | 448 kts | 58° |
| 2026-04-23 10:29 | -4.93335 | 108.46576 | 34801 ft | 448 kts | 58° |
| 2026-04-23 10:29 | -4.89992 | 108.51850 | 34798 ft | 449 kts | 58° |
| 2026-04-23 10:30 | -4.86645 | 108.57135 | 34795 ft | 450 kts | 58° |
| 2026-04-23 10:30 | -4.83276 | 108.62447 | 34787 ft | 450 kts | 58° |
| 2026-04-23 10:31 | -4.79933 | 108.67718 | 34782 ft | 449 kts | 58° |
| 2026-04-23 10:31 | -4.76591 | 108.72987 | 34780 ft | 450 kts | 58° |
| 2026-04-23 10:32 | -4.73232 | 108.78281 | 34780 ft | 448 kts | 58° |
| 2026-04-23 10:32 | -4.72105 | 108.80059 | 34780 ft | 447 kts | 59° |
| 2026-04-23 10:33 | -4.67194 | 108.89481 | 34780 ft | 448 kts | 65° |
| 2026-04-23 10:33 | -4.64577 | 108.95165 | 34780 ft | 448 kts | 66° |
| 2026-04-23 10:34 | -4.61954 | 109.00822 | 34784 ft | 448 kts | 65° |
| 2026-04-23 10:34 | -4.59301 | 109.06472 | 34782 ft | 448 kts | 65° |
| 2026-04-23 10:35 | -4.56637 | 109.12102 | 34791 ft | 448 kts | 65° |
| 2026-04-23 10:35 | -4.53968 | 109.17724 | 34797 ft | 447 kts | 65° |
| 2026-04-23 10:36 | -4.51290 | 109.23354 | 34800 ft | 447 kts | 65° |
| 2026-04-23 10:36 | -4.48630 | 109.28940 | 34804 ft | 447 kts | 65° |
| 2026-04-23 10:37 | -4.45941 | 109.34586 | 34801 ft | 448 kts | 65° |
| 2026-04-23 10:37 | -4.43252 | 109.40228 | 34802 ft | 448 kts | 65° |
| 2026-04-23 10:38 | -4.40571 | 109.45853 | 34804 ft | 448 kts | 65° |
| 2026-04-23 10:38 | -4.37903 | 109.51450 | 34801 ft | 447 kts | 65° |
| 2026-04-23 10:39 | -4.35214 | 109.57091 | 34803 ft | 447 kts | 65° |
| 2026-04-23 10:39 | -4.32538 | 109.62701 | 34802 ft | 447 kts | 65° |
| 2026-04-23 10:40 | -4.29854 | 109.68327 | 34802 ft | 447 kts | 65° |
| 2026-04-23 10:40 | -4.27165 | 109.73965 | 34801 ft | 448 kts | 65° |
| 2026-04-23 10:41 | -4.24487 | 109.79575 | 34790 ft | 447 kts | 65° |
| 2026-04-23 10:41 | -4.21810 | 109.85184 | 34505 ft | 444 kts | 65° |
| 2026-04-23 10:42 | -4.20481 | 109.87968 | 33931 ft | 441 kts | 65° |
| 2026-04-23 10:42 | -4.19168 | 109.90716 | 33216 ft | 440 kts | 65° |
| 2026-04-23 10:42 | -4.17836 | 109.93506 | 32507 ft | 439 kts | 64° |
| 2026-04-23 10:42 | -4.16543 | 109.96215 | 32056 ft | 434 kts | 64° |
| 2026-04-23 10:43 | -4.15232 | 109.98961 | 31498 ft | 433 kts | 64° |
| 2026-04-23 10:43 | -4.13945 | 110.01657 | 30922 ft | 434 kts | 64° |
| 2026-04-23 10:43 | -4.12635 | 110.04399 | 30321 ft | 433 kts | 64° |
| 2026-04-23 10:43 | -4.11339 | 110.07111 | 29736 ft | 431 kts | 64° |
| 2026-04-23 10:44 | -4.10048 | 110.09812 | 29131 ft | 429 kts | 64° |
| 2026-04-23 10:44 | -4.08766 | 110.12496 | 28546 ft | 426 kts | 64° |
| 2026-04-23 10:44 | -4.07490 | 110.15169 | 27966 ft | 418 kts | 64° |
| 2026-04-23 10:44 | -4.06250 | 110.17765 | 27415 ft | 409 kts | 64° |
| 2026-04-23 10:45 | -4.05032 | 110.20316 | 26863 ft | 407 kts | 64° |
| 2026-04-23 10:45 | -4.03824 | 110.22842 | 26283 ft | 406 kts | 64° |
| 2026-04-23 10:45 | -4.02604 | 110.25395 | 25713 ft | 405 kts | 64° |
| 2026-04-23 10:45 | -4.01387 | 110.27941 | 25135 ft | 404 kts | 64° |
| 2026-04-23 10:46 | -4.00185 | 110.30454 | 24570 ft | 403 kts | 64° |
| 2026-04-23 10:46 | -3.98971 | 110.32993 | 23994 ft | 402 kts | 64° |
| 2026-04-23 10:46 | -3.97769 | 110.35500 | 23412 ft | 399 kts | 64° |
| 2026-04-23 10:46 | -3.96518 | 110.37937 | 22918 ft | 388 kts | 60° |
| 2026-04-23 10:47 | -3.95127 | 110.40184 | 22820 ft | 370 kts | 57° |
| 2026-04-23 10:47 | -3.93678 | 110.42289 | 22830 ft | 368 kts | 55° |
| 2026-04-23 10:47 | -3.92165 | 110.44396 | 22802 ft | 378 kts | 54° |
| 2026-04-23 10:47 | -3.90611 | 110.46536 | 22796 ft | 382 kts | 54° |
| 2026-04-23 10:48 | -3.89021 | 110.48727 | 22798 ft | 381 kts | 54° |
| 2026-04-23 10:48 | -3.87472 | 110.50869 | 22798 ft | 380 kts | 55° |
| 2026-04-23 10:48 | -3.85912 | 110.53036 | 22800 ft | 380 kts | 55° |
| 2026-04-23 10:48 | -3.84371 | 110.55180 | 22802 ft | 381 kts | 55° |
| 2026-04-23 10:49 | -3.82836 | 110.57321 | 22801 ft | 380 kts | 55° |
| 2026-04-23 10:49 | -3.81268 | 110.59509 | 22801 ft | 380 kts | 55° |
| 2026-04-23 10:49 | -3.79717 | 110.61675 | 22802 ft | 380 kts | 55° |
| 2026-04-23 10:49 | -3.78174 | 110.63831 | 22801 ft | 379 kts | 55° |
| 2026-04-23 10:50 | -3.76646 | 110.65967 | 22801 ft | 380 kts | 55° |
| 2026-04-23 10:50 | -3.75101 | 110.68126 | 22801 ft | 380 kts | 55° |
| 2026-04-23 10:50 | -3.73543 | 110.70304 | 22801 ft | 380 kts | 55° |
| 2026-04-23 10:50 | -3.72017 | 110.72437 | 22802 ft | 380 kts | 55° |
| 2026-04-23 10:51 | -3.70463 | 110.74608 | 22801 ft | 381 kts | 55° |
| 2026-04-23 10:51 | -3.68903 | 110.76788 | 22800 ft | 380 kts | 55° |
| 2026-04-23 10:51 | -3.67358 | 110.78945 | 22802 ft | 380 kts | 55° |
| 2026-04-23 10:51 | -3.65800 | 110.81122 | 22801 ft | 379 kts | 55° |
| 2026-04-23 10:52 | -3.64238 | 110.83302 | 22802 ft | 379 kts | 55° |
| 2026-04-23 10:52 | -3.62711 | 110.85435 | 22802 ft | 379 kts | 55° |
| 2026-04-23 10:52 | -3.61155 | 110.87611 | 22802 ft | 379 kts | 55° |
| 2026-04-23 10:52 | -3.59616 | 110.89761 | 22801 ft | 380 kts | 55° |
| 2026-04-23 10:53 | -3.58066 | 110.91924 | 22801 ft | 380 kts | 55° |
| 2026-04-23 10:53 | -3.56519 | 110.94083 | 22802 ft | 379 kts | 55° |
| 2026-04-23 10:53 | -3.54979 | 110.96234 | 22801 ft | 380 kts | 55° |
| 2026-04-23 10:53 | -3.53444 | 110.98377 | 22803 ft | 380 kts | 55° |
| 2026-04-23 10:54 | -3.51902 | 111.00529 | 22801 ft | 380 kts | 55° |
| 2026-04-23 10:54 | -3.50359 | 111.02682 | 22653 ft | 378 kts | 55° |
| 2026-04-23 10:54 | -3.48828 | 111.04819 | 22140 ft | 377 kts | 55° |
| 2026-04-23 10:54 | -3.47296 | 111.06956 | 21559 ft | 378 kts | 55° |
| 2026-04-23 10:55 | -3.45772 | 111.09084 | 21007 ft | 378 kts | 55° |
| 2026-04-23 10:55 | -3.44222 | 111.11247 | 20417 ft | 373 kts | 54° |
| 2026-04-23 10:55 | -3.42728 | 111.13333 | 19908 ft | 365 kts | 54° |
| 2026-04-23 10:55 | -3.41260 | 111.15381 | 19378 ft | 365 kts | 54° |
| 2026-04-23 10:56 | -3.39787 | 111.17438 | 18833 ft | 364 kts | 54° |
| 2026-04-23 10:56 | -3.38315 | 111.19492 | 18297 ft | 363 kts | 54° |
| 2026-04-23 10:56 | -3.36834 | 111.21562 | 17762 ft | 362 kts | 54° |
| 2026-04-23 10:56 | -3.35368 | 111.23611 | 17226 ft | 361 kts | 54° |
| 2026-04-23 10:57 | -3.33897 | 111.25667 | 16700 ft | 360 kts | 54° |
| 2026-04-23 10:57 | -3.32441 | 111.27698 | 16242 ft | 357 kts | 54° |
| 2026-04-23 10:57 | -3.31006 | 111.29701 | 15802 ft | 353 kts | 54° |
| 2026-04-23 10:57 | -3.29590 | 111.31678 | 15304 ft | 345 kts | 54° |
| 2026-04-23 10:58 | -3.28199 | 111.33619 | 14811 ft | 344 kts | 53° |
| 2026-04-23 10:58 | -3.26800 | 111.35571 | 14285 ft | 345 kts | 53° |
| 2026-04-23 10:58 | -3.25392 | 111.37533 | 13769 ft | 345 kts | 54° |
| 2026-04-23 10:58 | -3.23993 | 111.39484 | 13221 ft | 342 kts | 54° |
| 2026-04-23 10:59 | -3.22618 | 111.41402 | 12737 ft | 334 kts | 54° |
| 2026-04-23 10:59 | -3.21274 | 111.43277 | 12240 ft | 327 kts | 54° |
| 2026-04-23 10:59 | -3.19955 | 111.45116 | 11757 ft | 327 kts | 54° |
| 2026-04-23 10:59 | -3.18626 | 111.46970 | 11245 ft | 327 kts | 54° |
| 2026-04-23 11:00 | -3.17276 | 111.48852 | 10738 ft | 327 kts | 54° |
| 2026-04-23 11:00 | -3.15958 | 111.50689 | 10364 ft | 323 kts | 54° |
| 2026-04-23 11:00 | -3.14674 | 111.52479 | 10188 ft | 307 kts | 54° |
| 2026-04-23 11:00 | -3.13460 | 111.54172 | 10086 ft | 289 kts | 54° |
| 2026-04-23 11:01 | -3.12307 | 111.55781 | 9786 ft | 280 kts | 54° |
| 2026-04-23 11:01 | -3.11170 | 111.57368 | 9374 ft | 281 kts | 54° |
| 2026-04-23 11:01 | -3.10033 | 111.58952 | 9034 ft | 279 kts | 54° |
| 2026-04-23 11:01 | -3.08863 | 111.60501 | 8860 ft | 271 kts | 52° |
| 2026-04-23 11:02 | -3.07698 | 111.61960 | 8572 ft | 268 kts | 51° |
| 2026-04-23 11:02 | -3.06511 | 111.63425 | 8236 ft | 270 kts | 51° |
| 2026-04-23 11:02 | -3.05333 | 111.64887 | 7891 ft | 272 kts | 51° |
| 2026-04-23 11:02 | -3.04135 | 111.66383 | 7533 ft | 271 kts | 51° |
| 2026-04-23 11:03 | -3.02957 | 111.67861 | 7188 ft | 269 kts | 51° |
| 2026-04-23 11:03 | -3.01800 | 111.69315 | 6847 ft | 268 kts | 52° |
| 2026-04-23 11:03 | -3.00626 | 111.70791 | 6499 ft | 267 kts | 51° |
| 2026-04-23 11:03 | -2.99473 | 111.72240 | 6157 ft | 266 kts | 51° |
| 2026-04-23 11:04 | -2.98314 | 111.73695 | 5807 ft | 264 kts | 51° |
| 2026-04-23 11:04 | -2.97188 | 111.75111 | 5517 ft | 258 kts | 51° |
| 2026-04-23 11:04 | -2.96078 | 111.76504 | 5152 ft | 254 kts | 51° |
| 2026-04-23 11:04 | -2.94977 | 111.77848 | 4973 ft | 237 kts | 49° |
| 2026-04-23 11:05 | -2.93927 | 111.79041 | 4982 ft | 218 kts | 48° |
| 2026-04-23 11:05 | -2.92919 | 111.80166 | 4985 ft | 215 kts | 48° |
| 2026-04-23 11:05 | -2.91930 | 111.81281 | 4851 ft | 215 kts | 49° |
| 2026-04-23 11:05 | -2.90931 | 111.82418 | 4635 ft | 213 kts | 49° |
| 2026-04-23 11:06 | -2.88773 | 111.84169 | 4492 ft | 188 kts | 16° |
| 2026-04-23 11:06 | -2.87484 | 111.84273 | 4373 ft | 184 kts | 357° |
| 2026-04-23 11:06 | -2.86244 | 111.84029 | 4184 ft | 177 kts | 342° |
| 2026-04-23 11:07 | -2.85215 | 111.83395 | 3934 ft | 170 kts | 318° |
| 2026-04-23 11:07 | -2.84455 | 111.82549 | 3757 ft | 161 kts | 313° |
| 2026-04-23 11:07 | -2.83703 | 111.81685 | 3619 ft | 166 kts | 314° |
| 2026-04-23 11:07 | -2.82886 | 111.80846 | 3461 ft | 169 kts | 319° |
| 2026-04-23 11:08 | -2.82027 | 111.80032 | 3210 ft | 170 kts | 317° |
| 2026-04-23 11:08 | -2.81225 | 111.79178 | 2974 ft | 167 kts | 314° |
| 2026-04-23 11:08 | -2.80449 | 111.78300 | 2759 ft | 168 kts | 313° |
| 2026-04-23 11:08 | -2.79676 | 111.77424 | 2537 ft | 168 kts | 313° |
| 2026-04-23 11:09 | -2.78907 | 111.76553 | 2312 ft | 167 kts | 312° |
| 2026-04-23 11:09 | -2.78128 | 111.75671 | 2083 ft | 168 kts | 312° |
| 2026-04-23 11:09 | -2.77359 | 111.74799 | 1855 ft | 168 kts | 311° |
| 2026-04-23 11:09 | -2.76595 | 111.73921 | 1631 ft | 166 kts | 312° |
| 2026-04-23 11:10 | -2.75810 | 111.73064 | 1396 ft | 166 kts | 314° |
| 2026-04-23 11:10 | -2.75032 | 111.72228 | 1167 ft | 164 kts | 314° |
| 2026-04-23 11:10 | -2.74244 | 111.71385 | 936 ft | 163 kts | 314° |
| 2026-04-23 11:10 | -2.73476 | 111.70553 | 709 ft | 161 kts | 313° |
| 2026-04-23 11:11 | -2.72730 | 111.69737 | 530 ft | 157 kts | 313° |
| 2026-04-23 11:11 | -2.71994 | 111.68931 | 318 ft | 156 kts | 314° |
| 2026-04-23 11:11 | -2.71257 | 111.68127 | 121 ft | 154 kts | 313° |
| 2026-04-23 11:11 | -2.70605 | 111.67413 | 82 ft | 113 kts | 313° |
| 2026-04-23 11:12 | -2.70283 | 111.67058 | 82 ft | 27 kts | 299° |
| 2026-04-23 11:12 | -2.70306 | 111.66966 | 82 ft | 5 kts | 226° |
| 2026-04-23 11:12 | -2.70310 | 111.66947 | 82 ft | 4 kts | 285° |
| 2026-04-23 11:12 | -2.70303 | 111.66919 | 82 ft | 5 kts | 249° |
| 2026-04-23 11:13 | -2.70316 | 111.66904 | 82 ft | 0 kts | 225° |